東京/成田 の空港の天気 - METARとTAF

新東京国際空港 ( RJAA / NRT ) - 千葉県成田市
飛行場実況気象(Metar)
観測時間07/22 11:00 JST (07/22 02:00 UTC)
風向・風速北 3m/s
視程3000m
天気現象もや
全天の4割程度の雲 雲底高度 60m
全天の8割程度の雲 雲底高度 90m
気温23℃
湿度94%
気圧1011hPa
METARRJAA 220200Z 01006KT 340V050 3000 BR SCT002 BKN003 23/22 Q1011 NOSIG
過去の天気等 Google飛行場航空写真 Wunderground天気予報

過去48時間のMETAR

飛行場予報(TAF)
発表時間: 7/22 11:05 JST (7/22 02:05 UTC)
予報対象時間: 22日11時 JST ~ 23日15時 JST
風向・風速北北東 3m/s
視程4000m
天気現象もや
少しの雲 雲底高度 150m
全天の8割程度の雲 雲底高度 240m
22日11時 JST ~ 22日13時 JST に一時的に
視程3000m
天気現象もや
少しの雲 雲底高度 60m
全天の8割程度の雲 雲底高度 120m
22日19時 JST ~ 22日21時 JST に徐々に
風向・風速南南東 3m/s
視程10km以上
天気現象運行に影響にある天気現象が終了
少しの雲 雲底高度 460m
全天の8割程度の雲 雲底高度 910m
23日9時 JST ~ 23日12時 JST に一時的に
視程4000m
天気現象弱い雷雨 もや
少しの雲 雲底高度 150m
全天の8割程度の雲 雲底高度 240m
少しの積乱雲 雲底高度 610m
TAF AMD RJAA 220205Z 2202/2306 02006KT 4000 BR FEW005 BKN008
TEMPO 2202/2204 3000 BR FEW002 BKN004
BECMG 2210/2212 16006KT 9999 NSW FEW015 BKN030
TEMPO 2300/2303 4000 -TSRA BR FEW005 BKN008 FEW020CB
日本の空港のMETAR・TAFへのリンク

RJTT 東京国際空港
RJAA 新東京国際空港
RJBB 関西国際空港
RJOO 大阪空港
RJGG 中部国際空港
RJCC 新千歳空港
RJFF 福岡空港
ROAH 那覇空港


RJEC 旭川空港
RJCH 函館空港
RJCK 釧路空港
RJCM 女満別空港
RJCB 帯広空港
RJSA 青森空港
RJSS 仙台空港
RJSK 秋田空港
RJSF 福島空港
RJAH 茨城空港
RJSN 新潟空港
RJNT 富山空港
RJNK 小松飛行場
RJNS 静岡空港
RJOH 美保飛行場
RJOC 出雲空港
RJOB 岡山空港
RJOA 広島空港
RJOI 岩国飛行場
RJOT 高松空港
RJOM 松山空港
RJOK 高知空港
RJFR 北九州空港
RJFT 熊本空港
RJFU 長崎空港
RJFS 佐賀空港
RJFO 大分空港
RJFM 宮崎空港
RJFK 鹿児島空港
ROIG 石垣島空港
RJTY 横田飛行場
ROTM 普天間飛行場
RODN 嘉手納飛行場